Time;durP1;ratioP1;P1;durP2;ratioP2;P2;SDS_P1;SDS_P2;PMS_P1;PMS_P2;Temp;Humidity;BMP_temperature;BMP_pressure;BME280_temperature;BME280_humidity;BME280_pressure;Samples;Min_cycle;Max_cycle;Signal;HPM_P1;HPM_P2
2023/10/11 00:03:16;;;;;;;;;17.50;11.25;;;;;20.15;49.13;101215.50;5113021;27;45869;-73
2023/10/11 00:05:44;;;;;;;;;19.75;13.00;;;;;20.13;48.80;101214.72;5100605;27;45573;-73
2023/10/11 00:08:16;;;;;;;;;14.00;11.00;;;;;20.14;48.81;101227.06;5120371;27;45410;-73
2023/10/11 00:10:53;;;;;;;;;15.75;11.75;;;;;20.13;48.98;101229.81;5097034;27;48007;-73
2023/10/11 00:13:20;;;;;;;;;15.25;13.00;;;;;20.09;49.09;101227.34;5136696;27;45994;-73
2023/10/11 00:15:50;;;;;;;;;17.50;12.00;;;;;20.10;49.13;101233.53;5117663;27;45452;-72
2023/10/11 00:18:21;;;;;;;;;15.50;11.00;;;;;20.07;49.51;101223.91;5120440;27;45488;-72
2023/10/11 00:20:51;;;;;;;;;13.75;11.25;;;;;20.07;49.61;101229.22;5106560;27;46449;-72
2023/10/11 00:23:21;;;;;;;;;17.25;13.00;;;;;20.06;49.41;101235.50;5114002;27;45819;-72
2023/10/11 00:25:49;;;;;;;;;17.00;12.00;;;;;20.07;49.71;101239.00;5091812;27;45177;-71
2023/10/11 00:28:15;;;;;;;;;18.75;12.00;;;;;20.05;49.39;101239.09;5116667;27;45576;-74
2023/10/11 00:30:40;;;;;;;;;13.75;12.50;;;;;20.04;49.27;101240.06;5118481;27;47236;-73
2023/10/11 00:33:07;;;;;;;;;18.25;15.00;;;;;20.04;49.64;101237.41;5117607;27;45450;-71
2023/10/11 00:35:34;;;;;;;;;15.50;10.75;;;;;20.00;49.92;101230.53;5118685;27;45302;-72
2023/10/11 00:38:00;;;;;;;;;15.00;11.75;;;;;19.99;49.86;101226.19;5121048;27;45451;-73
2023/10/11 00:40:28;;;;;;;;;12.50;9.75;;;;;19.98;50.24;101235.09;5119066;27;45436;-73
2023/10/11 00:42:56;;;;;;;;;21.00;16.00;;;;;19.97;50.02;101230.72;5119035;27;45232;-72
2023/10/11 00:45:23;;;;;;;;;15.50;9.75;;;;;19.96;49.74;101230.84;5089744;27;45626;-73
2023/10/11 00:47:51;;;;;;;;;13.50;10.50;;;;;19.92;50.01;101225.69;5113700;27;45536;-73
2023/10/11 00:50:17;;;;;;;;;14.50;10.75;;;;;19.94;49.88;101235.34;5104475;27;47133;-73
2023/10/11 00:52:45;;;;;;;;;16.75;10.50;;;;;19.92;50.23;101230.16;5097092;27;46074;-73
2023/10/11 00:55:17;;;;;;;;;11.75;10.00;;;;;19.91;50.02;101220.47;5116501;27;45328;-73
2023/10/11 00:57:47;;;;;;;;;12.50;10.75;;;;;19.91;50.40;101210.69;5107657;27;46405;-74
2023/10/11 01:00:21;;;;;;;;;13.50;11.25;;;;;19.91;50.40;101215.16;5116181;27;45560;-73
2023/10/11 01:02:47;;;;;;;;;10.50;8.50;;;;;19.88;49.85;101204.69;5091677;27;45861;-73
2023/10/11 01:05:14;;;;;;;;;13.50;9.25;;;;;19.88;50.35;101200.25;5105999;27;45354;-73
2023/10/11 01:07:39;;;;;;;;;15.25;12.00;;;;;19.87;50.17;101198.53;5118938;27;45491;-72
2023/10/11 01:10:06;;;;;;;;;15.50;10.00;;;;;19.85;49.82;101199.59;5117610;27;60755;-73
2023/10/11 01:12:32;;;;;;;;;14.25;11.00;;;;;19.86;50.26;101199.47;5117450;27;45543;-72
2023/10/11 01:14:58;;;;;;;;;13.75;9.50;;;;;19.86;50.11;101210.09;5099919;27;46577;-73
2023/10/11 01:17:26;;;;;;;;;13.00;10.50;;;;;19.83;50.08;101202.34;5119311;27;45472;-73
2023/10/11 01:19:52;;;;;;;;;11.00;11.00;;;;;19.84;50.30;101198.72;5104582;27;46237;-72
2023/10/11 01:22:21;;;;;;;;;13.25;9.50;;;;;19.81;49.86;101196.22;5109310;27;45500;-73
2023/10/11 01:24:47;;;;;;;;;15.50;10.50;;;;;19.82;50.49;101189.13;5112945;27;45258;-73
2023/10/11 01:27:16;;;;;;;;;14.00;10.50;;;;;19.83;50.04;101190.81;5092581;27;45573;-72
2023/10/11 01:29:41;;;;;;;;;11.75;8.75;;;;;19.80;49.98;101180.41;5114285;27;47465;-71
2023/10/11 01:32:07;;;;;;;;;13.75;9.00;;;;;19.82;50.25;101186.47;5122169;27;45333;-72
2023/10/11 01:34:32;;;;;;;;;11.00;8.00;;;;;19.81;50.26;101182.09;5122043;27;45593;-72
2023/10/11 01:36:58;;;;;;;;;12.75;8.00;;;;;19.79;50.11;101179.53;5121615;27;45554;-72
2023/10/11 01:39:24;;;;;;;;;13.50;10.50;;;;;19.79;50.02;101179.53;5119555;27;45433;-72
2023/10/11 01:41:49;;;;;;;;;12.25;10.50;;;;;19.77;50.13;101176.13;5111999;27;62063;-73
2023/10/11 01:44:15;;;;;;;;;11.75;10.00;;;;;19.77;50.11;101170.81;5120595;27;45487;-73
2023/10/11 01:46:41;;;;;;;;;13.75;10.00;;;;;19.75;50.42;101170.03;5104422;27;45357;-72
2023/10/11 01:49:10;;;;;;;;;11.50;9.00;;;;;19.73;50.49;101158.63;5114546;27;46032;-73
2023/10/11 01:51:39;;;;;;;;;8.75;6.50;;;;;19.66;50.39;101146.66;5120412;27;46109;-72
2023/10/11 01:54:06;;;;;;;;;12.00;9.25;;;;;19.68;50.15;101147.41;5117814;27;45252;-73
2023/10/11 01:56:33;;;;;;;;;17.00;10.50;;;;;19.68;50.36;101150.91;5116884;27;46289;-73
2023/10/11 01:59:01;;;;;;;;;12.25;9.75;;;;;19.67;50.04;101149.22;5120372;27;68929;-73
2023/10/11 02:01:30;;;;;;;;;10.00;8.50;;;;;19.64;50.43;101140.59;5122164;27;45542;-72
2023/10/11 02:04:00;;;;;;;;;14.00;9.50;;;;;19.65;50.78;101151.09;5104780;27;45456;-73
2023/10/11 02:06:26;;;;;;;;;15.00;9.00;;;;;19.61;50.55;101154.03;5121655;27;45414;-72
2023/10/11 02:08:52;;;;;;;;;14.00;10.25;;;;;19.60;50.81;101152.31;5112465;27;46225;-73
2023/10/11 02:11:24;;;;;;;;;11.00;8.00;;;;;19.55;50.88;101149.94;5122015;27;45711;-72
2023/10/11 02:13:50;;;;;;;;;15.00;9.00;;;;;19.54;50.65;101150.88;5104192;27;45506;-73
2023/10/11 02:16:15;;;;;;;;;12.00;8.50;;;;;19.50;50.70;101149.34;5122464;27;45607;-72
2023/10/11 02:18:41;;;;;;;;;10.50;9.00;;;;;19.50;50.74;101138.72;5119522;27;46255;-73
2023/10/11 02:21:07;;;;;;;;;8.75;8.50;;;;;19.46;51.12;101147.78;5103977;27;45360;-72
2023/10/11 02:23:42;;;;;;;;;18.25;10.50;;;;;19.43;50.73;101143.53;5117630;27;45447;-71
2023/10/11 02:26:14;;;;;;;;;15.00;11.75;;;;;19.42;50.99;101140.97;5107654;27;45270;-71
2023/10/11 02:28:43;;;;;;;;;20.25;12.75;;;;;19.38;51.13;101134.13;5112210;27;45231;-72
2023/10/11 02:31:13;;;;;;;;;10.25;8.00;;;;;19.35;50.80;101133.38;5120084;27;45494;-72
2023/10/11 02:33:39;;;;;;;;;13.00;9.00;;;;;19.31;51.38;101120.34;5112089;27;45484;-71
2023/10/11 02:36:17;;;;;;;;;12.00;10.00;;;;;19.30;51.25;101130.13;5118982;27;45214;-72
2023/10/11 02:38:47;;;;;;;;;14.00;11.25;;;;;19.28;51.39;101126.69;5119185;27;45587;-72
2023/10/11 02:41:24;;;;;;;;;15.75;11.00;;;;;19.26;50.96;101135.69;5100816;27;45537;-72
2023/10/11 02:43:54;;;;;;;;;18.25;11.50;;;;;19.23;51.55;101133.19;5103258;27;45494;-71
2023/10/11 02:46:23;;;;;;;;;13.50;8.25;;;;;19.19;51.40;101134.31;5105736;27;45451;-72
2023/10/11 02:48:52;;;;;;;;;16.50;11.00;;;;;19.19;51.08;101139.63;5092086;27;46429;-72
2023/10/11 02:51:24;;;;;;;;;13.75;9.75;;;;;19.16;51.42;101143.31;5103554;27;45339;-72
2023/10/11 02:53:52;;;;;;;;;13.00;8.50;;;;;19.14;51.45;101143.41;5135645;27;45319;-73
2023/10/11 02:56:18;;;;;;;;;8.50;7.75;;;;;19.15;51.60;101146.91;5119121;27;45344;-72
2023/10/11 02:58:43;;;;;;;;;14.00;11.75;;;;;19.10;51.66;101141.84;5117460;27;45467;-73
2023/10/11 03:01:15;;;;;;;;;16.25;9.75;;;;;19.11;51.82;101148.88;5119515;27;45494;-72
2023/10/11 03:03:44;;;;;;;;;12.00;9.00;;;;;19.07;51.58;101138.50;5119297;27;45410;-73
2023/10/11 03:06:10;;;;;;;;;9.00;8.75;;;;;19.06;51.54;101137.66;5108302;27;45566;-73
2023/10/11 03:08:37;;;;;;;;;14.50;11.25;;;;;19.06;51.62;101140.31;5113744;27;46562;-72
2023/10/11 03:11:08;;;;;;;;;10.75;9.00;;;;;19.04;51.66;101138.72;5094085;27;45754;-71
2023/10/11 03:13:41;;;;;;;;;11.25;7.75;;;;;19.02;51.64;101135.28;5104710;27;45370;-72
2023/10/11 03:16:16;;;;;;;;;11.50;8.75;;;;;18.97;51.88;101133.72;5120713;27;45232;-72
2023/10/11 03:18:46;;;;;;;;;12.50;8.50;;;;;19.01;51.56;101133.56;5121249;27;45585;-71
2023/10/11 03:23:44;;;;;;;;;10.25;8.25;;;;;18.96;51.88;101136.47;5108293;27;45498;-72
2023/10/11 03:26:22;;;;;;;;;14.00;9.50;;;;;18.95;51.53;101129.47;5118524;27;45526;-72
2023/10/11 03:28:57;;;;;;;;;10.50;8.75;;;;;18.92;51.92;101133.13;5119898;27;45313;-72
2023/10/11 03:31:29;;;;;;;;;12.50;10.75;;;;;18.89;51.97;101122.72;5118409;27;45700;-72
2023/10/11 03:33:59;;;;;;;;;13.00;10.00;;;;;18.85;51.75;101129.09;5119429;27;45552;-72
2023/10/11 03:36:35;;;;;;;;;11.50;9.00;;;;;18.84;51.63;101129.19;5117908;27;45173;-72
2023/10/11 03:39:09;;;;;;;;;13.00;8.50;;;;;18.79;51.85;101124.13;5114600;27;45401;-71
2023/10/11 03:41:45;;;;;;;;;10.00;8.00;;;;;18.75;51.91;101122.56;5119271;27;45417;-73
2023/10/11 03:44:11;;;;;;;;;9.75;8.00;;;;;18.73;51.87;101119.16;5119885;27;45543;-73
2023/10/11 03:46:38;;;;;;;;;12.75;10.00;;;;;18.70;52.10;101116.69;5120046;27;45442;-73
2023/10/11 03:51:48;;;;;;;;;14.00;6.75;;;;;18.70;52.30;101111.38;5109527;27;46607;-72
2023/10/11 03:54:23;;;;;;;;;12.75;9.00;;;;;18.70;51.84;101106.06;5114249;27;45677;-72
2023/10/11 03:56:53;;;;;;;;;11.75;9.00;;;;;18.64;52.29;101101.09;5112705;27;45445;-72
2023/10/11 03:59:25;;;;;;;;;13.00;9.00;;;;;18.63;51.99;101102.91;5119946;27;46050;-72
2023/10/11 04:01:51;;;;;;;;;11.75;8.50;;;;;18.62;52.15;101101.19;5098656;27;45425;-71
2023/10/11 04:04:17;;;;;;;;;17.00;10.75;;;;;18.57;52.13;101104.09;5112079;27;45452;-71
2023/10/11 04:06:49;;;;;;;;;10.50;9.00;;;;;18.57;51.96;101103.22;5100888;27;45430;-71
2023/10/11 04:09:49;;;;;;;;;10.75;8.25;;;;;18.52;52.46;101094.66;5106907;27;46308;-72
2023/10/11 04:12:10;;;;;;;;;12.75;8.00;;;;;18.52;52.08;101098.19;5104794;27;45515;-71
2023/10/11 04:14:42;;;;;;;;;9.75;7.25;;;;;18.49;52.41;101102.81;5102653;27;45341;-71
2023/10/11 04:17:48;;;;;;;;;9.50;8.75;;;;;18.48;52.16;101096.63;5100842;27;45345;-71
2023/10/11 04:20:29;;;;;;;;;8.00;7.00;;;;;18.45;52.17;101103.88;5106936;27;46028;-71
2023/10/11 04:23:09;;;;;;;;;9.00;7.25;;;;;18.44;51.98;101096.91;5103358;27;45991;-71
2023/10/11 04:25:37;;;;;;;;;13.50;8.25;;;;;18.40;52.57;101099.72;5106709;27;45654;-70
2023/10/11 04:28:05;;;;;;;;;12.00;7.25;;;;;18.39;52.58;101095.31;5111814;27;45497;-71
2023/10/11 04:31:27;;;;;;;;;10.25;8.00;;;;;18.36;52.37;101090.22;5107618;27;45479;-71
2023/10/11 04:33:20;;;;;;;;;13.00;8.00;;;;;18.37;52.35;101099.88;5111085;27;45709;-71
2023/10/11 04:35:55;;;;;;;;;11.50;9.00;;;;;18.35;52.70;101103.53;5109148;27;45489;-71
2023/10/11 04:38:21;;;;;;;;;12.00;8.00;;;;;18.34;52.53;101101.81;5105936;27;45416;-72
2023/10/11 04:40:51;;;;;;;;;9.00;7.25;;;;;18.34;52.53;101104.47;5102374;27;45369;-71
2023/10/11 04:43:20;;;;;;;;;13.00;9.50;;;;;18.33;52.57;101108.06;5119986;27;45496;-71
2023/10/11 04:45:47;;;;;;;;;12.25;7.00;;;;;18.28;52.75;101115.41;5117279;27;45467;-71
2023/10/11 04:48:29;;;;;;;;;10.00;8.00;;;;;18.26;52.83;101112.84;5107556;27;45333;-71
2023/10/11 04:51:04;;;;;;;;;12.50;7.25;;;;;18.27;52.62;101122.47;5117756;27;47287;-71
2023/10/11 04:53:37;;;;;;;;;10.25;6.00;;;;;18.24;52.55;101122.66;5119914;27;45384;-71
2023/10/11 04:56:51;;;;;;;;;10.75;7.00;;;;;18.22;52.64;101124.53;5115768;27;45387;-71
2023/10/11 04:58:51;;;;;;;;;11.75;9.00;;;;;18.23;52.62;101128.03;5117341;27;45208;-71
2023/10/11 05:01:22;;;;;;;;;8.25;7.25;;;;;18.19;52.57;101136.13;5107070;27;46574;-71
2023/10/11 05:03:58;;;;;;;;;10.75;9.00;;;;;18.19;52.77;101136.13;5101618;27;45652;-71
2023/10/11 05:06:31;;;;;;;;;4.25;3.00;;;;;18.18;52.70;101138.88;5120113;27;45460;-71
2023/10/11 05:09:13;;;;;;;;;12.25;11.00;;;;;18.17;52.61;101134.53;5113473;27;45525;-71
2023/10/11 05:11:44;;;;;;;;;11.75;7.75;;;;;18.18;52.46;101121.22;5118478;27;46180;-71
2023/10/11 05:14:32;;;;;;;;;12.00;7.00;;;;;18.18;52.91;101125.63;5106820;27;45826;-71
2023/10/11 05:16:59;;;;;;;;;10.75;8.25;;;;;18.18;52.62;101126.50;5103319;27;46371;-71
2023/10/11 05:19:34;;;;;;;;;9.00;7.25;;;;;18.17;52.21;101114.19;5114272;27;45402;-71
2023/10/11 05:22:00;;;;;;;;;9.50;7.00;;;;;18.17;52.79;101108.88;5119022;27;45318;-71
2023/10/11 05:32:54;;;;;;;;;15.00;9.00;;;;;18.11;52.56;101126.88;5115041;27;45421;-71
2023/10/11 05:51:30;;;;;;;;;7.50;6.25;;;;;18.02;52.52;101138.81;5106318;27;45470;-72
2023/10/11 05:53:56;;;;;;;;;10.00;6.50;;;;;18.01;52.76;101137.97;5115483;27;45411;-71
2023/10/11 05:56:22;;;;;;;;;12.75;9.50;;;;;18.00;52.33;101138.03;5103890;27;46082;-71
2023/10/11 05:58:49;;;;;;;;;10.00;6.00;;;;;17.98;52.60;101142.56;5103418;27;46541;-71
2023/10/11 06:01:16;;;;;;;;;8.25;5.50;;;;;17.95;52.26;101138.25;5111479;27;46090;-72
2023/10/11 06:03:43;;;;;;;;;11.00;8.00;;;;;17.94;52.42;101135.72;5115062;27;48285;-71
2023/10/11 06:06:23;;;;;;;;;12.50;6.50;;;;;17.94;52.46;101143.66;5121614;27;45849;-72
2023/10/11 06:08:50;;;;;;;;;11.75;7.25;;;;;17.94;52.34;101146.31;5119969;27;45396;-72
2023/10/11 06:11:15;;;;;;;;;13.75;8.00;;;;;17.95;52.14;101153.31;5122571;27;45556;-72
2023/10/11 06:13:43;;;;;;;;;15.00;9.00;;;;;17.92;52.14;101158.75;5118415;27;46222;-73
2023/10/11 06:16:13;;;;;;;;;7.25;7.00;;;;;17.91;52.16;101162.34;5120281;27;45465;-70
2023/10/11 06:18:39;;;;;;;;;9.00;8.50;;;;;17.92;52.46;101175.50;5098126;27;45289;-73
2023/10/11 06:21:05;;;;;;;;;11.00;7.25;;;;;17.88;52.29;101167.78;5113274;27;45498;-69
2023/10/11 06:23:32;;;;;;;;;15.75;8.00;;;;;17.91;52.18;101176.44;5119403;27;46138;-71
2023/10/11 06:25:59;;;;;;;;;9.50;7.00;;;;;17.89;52.30;101173.00;5115354;27;45413;-70
2023/10/11 06:28:31;;;;;;;;;9.50;7.50;;;;;17.89;52.20;101173.00;5120388;27;45377;-71
2023/10/11 06:31:00;;;;;;;;;9.25;8.25;;;;;17.90;52.18;101171.22;5115568;27;45428;-69
2023/10/11 06:33:27;;;;;;;;;14.00;8.00;;;;;17.93;52.01;101171.06;5120350;27;45446;-71
2023/10/11 06:35:53;;;;;;;;;16.50;11.75;;;;;17.93;52.25;101163.13;5110772;27;45333;-72
2023/10/11 06:38:18;;;;;;;;;10.50;8.00;;;;;17.95;52.21;101169.19;5119863;27;45262;-66
2023/10/11 06:40:54;;;;;;;;;11.00;9.75;;;;;17.94;52.25;101167.50;5096335;27;45389;-65
2023/10/11 06:43:20;;;;;;;;;14.00;7.25;;;;;17.89;52.05;101159.78;5118955;27;45540;-66
2023/10/11 06:45:46;;;;;;;;;13.50;9.25;;;;;17.96;52.43;101171.78;5117869;27;45380;-65
2023/10/11 06:48:13;;;;;;;;;14.50;9.75;;;;;17.96;52.35;101169.13;5121789;27;45348;-65
2023/10/11 06:50:39;;;;;;;;;9.75;7.75;;;;;17.98;52.34;101164.59;5118831;27;45365;-65
2023/10/11 06:53:09;;;;;;;;;13.00;11.50;;;;;18.01;52.39;101171.53;5102509;27;49074;-67
2023/10/11 06:55:47;;;;;;;;;17.75;11.75;;;;;18.02;52.34;101171.47;5110012;27;45159;-65
2023/10/11 06:58:19;;;;;;;;;9.75;9.25;;;;;18.03;52.55;101174.97;5116278;27;45503;-65
2023/10/11 07:00:47;;;;;;;;;12.25;9.00;;;;;18.06;52.39;101168.63;5112579;27;46021;-64
2023/10/11 07:05:51;;;;;;;;;52.25;40.25;;;;;18.12;52.29;101181.59;5116530;27;45922;-65
2023/10/11 07:08:17;;;;;;;;;43.25;34.00;;;;;18.13;52.25;101181.50;5109056;27;45480;-64
2023/10/11 07:10:51;;;;;;;;;20.75;13.00;;;;;18.14;52.27;101177.06;5104220;27;45248;-65
2023/10/11 07:13:23;;;;;;;;;14.50;10.50;;;;;18.14;52.34;101182.34;5112908;27;46255;-65
2023/10/11 07:15:50;;;;;;;;;12.75;8.25;;;;;18.16;52.22;101177.84;5117023;27;70704;-66
2023/10/11 07:18:26;;;;;;;;;12.00;10.50;;;;;18.18;51.93;101181.25;5111620;27;45731;-66
2023/10/11 07:21:05;;;;;;;;;13.50;10.25;;;;;18.21;51.75;101181.94;5116264;27;45301;-64
2023/10/11 07:23:56;;;;;;;;;11.00;8.25;;;;;18.26;51.92;101186.16;5114014;27;46354;-64
2023/10/11 07:28:59;;;;;;;;;13.00;9.75;;;;;18.29;52.09;101188.63;5116796;27;46258;-64
2023/10/11 07:31:31;;;;;;;;;17.50;13.75;;;;;18.32;52.23;101189.34;5124960;27;45253;-64
2023/10/11 07:34:05;;;;;;;;;20.25;13.00;;;;;18.37;52.11;101186.47;5103303;27;47921;-64
2023/10/11 07:36:31;;;;;;;;;17.25;11.00;;;;;18.38;51.94;101178.44;5117409;27;45714;-65
2023/10/11 07:38:56;;;;;;;;;16.50;13.25;;;;;18.42;51.79;101183.56;5111698;27;45339;-65
2023/10/11 07:41:24;;;;;;;;;12.50;10.00;;;;;18.45;51.49;101178.97;5111033;27;45421;-65
2023/10/11 07:43:50;;;;;;;;;15.25;10.25;;;;;18.47;51.88;101190.34;5117233;27;46612;-65
2023/10/11 07:46:16;;;;;;;;;11.25;9.75;;;;;18.51;51.34;101191.03;5108481;27;45408;-66
2023/10/11 07:48:42;;;;;;;;;15.25;9.00;;;;;18.52;51.24;101190.09;5107151;27;45524;-66
2023/10/11 07:51:10;;;;;;;;;11.00;10.00;;;;;18.55;51.44;101190.78;5127942;27;71166;-65
2023/10/11 07:53:43;;;;;;;;;18.00;10.50;;;;;18.60;51.07;101199.34;5118913;27;46637;-65
2023/10/11 07:56:09;;;;;;;;;38.00;29.50;;;;;18.64;51.00;101199.19;5112721;27;45881;-65
2023/10/11 07:58:45;;;;;;;;;97.00;77.00;;;;;18.66;50.90;101203.47;5129970;27;45347;-66
2023/10/11 08:03:58;;;;;;;;;12.50;10.50;;;;;18.73;50.87;101206.63;5121736;27;45267;-65
2023/10/11 08:06:24;;;;;;;;;16.00;11.25;;;;;18.76;50.86;101207.31;5133515;27;45709;-67
2023/10/11 08:08:59;;;;;;;;;16.50;13.00;;;;;18.82;50.79;101205.31;5114195;27;45307;-67
2023/10/11 08:11:37;;;;;;;;;19.00;10.75;;;;;18.82;50.68;101208.81;5120168;27;45551;-65
2023/10/11 08:14:13;;;;;;;;;12.75;10.00;;;;;18.83;50.79;101194.63;5113736;27;45496;-65
2023/10/11 08:16:40;;;;;;;;;13.50;11.00;;;;;18.87;50.98;101200.63;5137733;27;45276;-64
2023/10/11 08:19:05;;;;;;;;;14.00;11.25;;;;;18.90;51.05;101197.81;5102017;27;45395;-66
2023/10/11 08:21:31;;;;;;;;;12.25;8.75;;;;;18.92;50.50;101178.22;5115441;27;45290;-66
2023/10/11 08:23:57;;;;;;;;;27.75;23.25;;;;;18.98;50.43;101182.31;5110793;27;68956;-66
2023/10/11 08:26:24;;;;;;;;;66.25;46.00;;;;;19.03;50.15;101179.44;5119165;27;45850;-67
2023/10/11 08:28:51;;;;;;;;;32.50;24.75;;;;;19.08;50.24;101175.56;5107732;27;45170;-67
2023/10/11 08:31:37;;;;;;;;;16.75;9.50;;;;;19.14;49.71;101183.19;5116760;27;45455;-67
2023/10/11 08:34:03;;;;;;;;;14.25;7.00;;;;;19.21;49.91;101177.53;5106155;27;45394;-67
2023/10/11 08:36:33;;;;;;;;;11.50;9.75;;;;;19.24;49.13;101174.72;5111740;27;45342;-68
2023/10/11 08:39:03;;;;;;;;;10.25;8.50;;;;;19.30;49.20;101185.84;5116209;27;45427;-67
2023/10/11 08:41:30;;;;;;;;;9.25;8.50;;;;;19.34;49.36;101181.22;5112030;27;45313;-67
2023/10/11 08:43:59;;;;;;;;;10.00;5.00;;;;;19.41;48.43;101181.75;5116239;27;45324;-67
2023/10/11 08:46:28;;;;;;;;;11.75;9.00;;;;;19.51;48.61;101189.09;5121824;27;45737;-67
2023/10/11 08:48:54;;;;;;;;;11.25;8.50;;;;;19.56;48.41;101182.66;5124912;27;45502;-67
2023/10/11 08:51:22;;;;;;;;;10.75;8.00;;;;;19.60;48.04;101182.38;5118547;27;45696;-67
2023/10/11 08:53:54;;;;;;;;;13.50;8.50;;;;;19.67;48.18;101188.19;5125459;27;46162;-67
2023/10/11 08:56:22;;;;;;;;;11.00;8.00;;;;;19.76;47.88;101194.78;5111800;27;45412;-67
2023/10/11 08:58:51;;;;;;;;;14.00;7.00;;;;;19.81;47.79;101182.09;5118190;27;45305;-68
2023/10/11 09:01:17;;;;;;;;;12.50;8.50;;;;;19.86;47.40;101177.38;5112758;27;45501;-68
2023/10/11 09:03:42;;;;;;;;;9.75;7.00;;;;;19.95;47.01;101191.91;5106506;27;45342;-68
2023/10/11 09:06:21;;;;;;;;;12.25;9.25;;;;;20.00;46.87;101188.03;5103349;27;45346;-68
2023/10/11 09:08:47;;;;;;;;;11.75;9.25;;;;;20.10;46.73;101193.66;5133534;27;45414;-69
2023/10/11 09:11:28;;;;;;;;;9.75;8.00;;;;;20.19;46.70;101186.94;5115130;27;45535;-68
2023/10/11 09:14:10;;;;;;;;;9.75;7.75;;;;;20.26;46.33;101180.31;5114861;27;45697;-69
2023/10/11 09:16:35;;;;;;;;;14.50;10.00;;;;;20.34;46.21;101178.03;5134081;27;45368;-69
2023/10/11 09:19:10;;;;;;;;;9.75;7.25;;;;;20.47;46.50;101184.31;5111273;27;45623;-67
2023/10/11 09:21:36;;;;;;;;;10.00;6.50;;;;;20.56;45.95;101195.34;5126394;27;45227;-67
2023/10/11 09:24:03;;;;;;;;;9.75;6.25;;;;;20.62;46.19;101185.19;5123976;27;45532;-66
2023/10/11 09:26:33;;;;;;;;;10.75;7.75;;;;;20.69;45.59;101182.16;5120587;27;46057;-67
2023/10/11 09:29:03;;;;;;;;;8.00;5.00;;;;;20.79;45.13;101191.28;5099534;27;45339;-69
2023/10/11 09:31:31;;;;;;;;;7.50;7.00;;;;;20.84;45.16;101183.84;5113548;27;45509;-68
2023/10/11 09:34:00;;;;;;;;;6.50;6.00;;;;;20.90;43.44;101182.63;5121791;27;45334;-67
2023/10/11 09:36:28;;;;;;;;;8.50;7.25;;;;;20.97;44.48;101183.94;5112763;27;45440;-67
2023/10/11 09:38:54;;;;;;;;;9.75;6.00;;;;;21.01;44.74;101178.31;5119843;27;45463;-66
2023/10/11 09:41:40;;;;;;;;;6.75;5.50;;;;;21.09;44.68;101171.63;5104253;27;45482;-67
2023/10/11 09:44:14;;;;;;;;;5.75;5.00;;;;;21.16;44.34;101180.94;5102716;27;46993;-66
2023/10/11 09:46:43;;;;;;;;;9.25;6.00;;;;;21.24;44.09;101181.31;5121172;27;45511;-67
2023/10/11 09:49:12;;;;;;;;;10.25;7.50;;;;;21.30;43.94;101177.38;5122942;27;45307;-67
2023/10/11 09:51:41;;;;;;;;;9.50;6.00;;;;;21.42;44.21;101179.25;5116808;27;45353;-66
2023/10/11 09:54:12;;;;;;;;;9.00;7.00;;;;;21.51;44.00;101183.16;5115246;27;45367;-68
2023/10/11 09:56:50;;;;;;;;;9.50;6.75;;;;;21.61;44.14;101187.75;5122405;27;45357;-65
2023/10/11 09:59:31;;;;;;;;;6.25;3.75;;;;;21.72;43.29;101186.19;5110165;27;45442;-66
2023/10/11 10:02:12;;;;;;;;;7.25;5.00;;;;;21.86;43.58;101185.28;5112867;27;45502;-67
2023/10/11 10:04:57;;;;;;;;;9.50;4.75;;;;;21.96;43.08;101178.38;5125105;27;45274;-67
2023/10/11 10:07:42;;;;;;;;;19.75;12.75;;;;;22.08;43.06;101182.00;5102152;27;45422;-68
2023/10/11 10:10:10;;;;;;;;;9.00;8.75;;;;;22.17;42.98;101179.56;5102840;27;45502;-68
2023/10/11 10:12:41;;;;;;;;;4.00;3.75;;;;;22.27;42.46;101171.81;5122903;27;45457;-67
2023/10/11 10:15:23;;;;;;;;;7.25;4.00;;;;;22.35;42.85;101161.47;5112343;27;46194;-67
2023/10/11 10:18:00;;;;;;;;;6.75;3.75;;;;;22.49;42.72;101171.16;5098140;27;45624;-66
2023/10/11 10:20:43;;;;;;;;;7.50;5.25;;;;;22.60;42.71;101166.91;5116579;27;45400;-67
2023/10/11 10:23:15;;;;;;;;;11.50;6.75;;;;;22.70;42.47;101168.81;5121241;27;45363;-67
2023/10/11 10:25:47;;;;;;;;;8.00;6.25;;;;;22.80;42.21;101170.81;5110767;27;45362;-66
2023/10/11 10:28:35;;;;;;;;;7.50;5.25;;;;;22.89;41.68;101167.47;5115183;27;45908;-67
2023/10/11 10:31:11;;;;;;;;;6.50;5.00;;;;;22.98;41.71;101165.94;5111619;27;45448;-68
2023/10/11 10:33:38;;;;;;;;;7.50;4.50;;;;;23.05;42.14;101161.91;5097944;27;45561;-68
2023/10/11 10:36:37;;;;;;;;;8.00;5.50;;;;;23.14;41.96;101158.56;5109988;27;45489;-69
2023/10/11 10:41:44;;;;;;;;;6.25;4.25;;;;;23.24;41.37;101154.25;5122359;27;45264;-67
2023/10/11 10:44:12;;;;;;;;;34.75;27.25;;;;;23.33;41.55;101155.38;5109695;27;45321;-68
2023/10/11 10:46:51;;;;;;;;;22.50;18.25;;;;;23.42;41.70;101137.81;5114941;27;46811;-70
2023/10/11 10:49:17;;;;;;;;;8.00;5.00;;;;;23.48;40.78;101135.56;5106203;27;45307;-67
2023/10/11 10:51:47;;;;;;;;;7.75;5.50;;;;;23.57;41.02;101139.34;5114046;27;45457;-68
2023/10/11 10:54:13;;;;;;;;;5.00;4.25;;;;;23.65;40.45;101144.09;5099740;27;45445;-67
2023/10/11 10:56:40;;;;;;;;;10.50;5.00;;;;;23.69;40.50;101137.56;5116552;27;45488;-68
2023/10/11 10:59:14;;;;;;;;;6.50;4.75;;;;;23.74;40.82;101139.88;5119611;27;45439;-67
2023/10/11 11:01:46;;;;;;;;;4.00;3.25;;;;;23.79;41.16;101132.38;5121342;27;45722;-66
2023/10/11 11:04:14;;;;;;;;;10.75;5.50;;;;;23.83;41.00;101132.06;5115008;27;48809;-67
2023/10/11 11:06:44;;;;;;;;;7.75;6.50;;;;;23.87;40.02;101138.88;5095837;27;48337;-68
2023/10/11 11:09:29;;;;;;;;;8.75;4.00;;;;;23.88;38.91;101129.84;5113843;27;45641;-65
2023/10/11 11:12:08;;;;;;;;;6.00;3.50;;;;;23.89;40.29;101125.38;5113221;27;45756;-69
2023/10/11 11:14:33;;;;;;;;;4.75;3.50;;;;;23.94;40.07;101125.88;5108329;27;45604;-67
2023/10/11 11:17:00;;;;;;;;;5.75;3.00;;;;;23.98;40.11;101123.81;5113085;27;72514;-67
2023/10/11 11:19:26;;;;;;;;;4.50;3.75;;;;;24.04;40.35;101124.19;5114330;27;45791;-66
2023/10/11 11:22:15;;;;;;;;;6.75;5.50;;;;;24.12;39.89;101114.72;5106164;27;45456;-66
2023/10/11 11:24:42;;;;;;;;;4.00;4.00;;;;;24.15;40.00;101103.78;5105030;27;45631;-69
2023/10/11 11:27:18;;;;;;;;;7.50;5.00;;;;;24.18;39.58;101104.38;5120784;27;45506;-65
2023/10/11 11:29:47;;;;;;;;;15.25;11.00;;;;;24.17;40.20;101101.81;5120660;27;45237;-65
2023/10/11 11:32:16;;;;;;;;;34.75;27.75;;;;;24.17;39.85;101105.38;5119161;27;45356;-66
2023/10/11 11:35:04;;;;;;;;;9.50;8.25;;;;;24.18;40.33;101106.22;5102468;27;45611;-65
2023/10/11 11:37:31;;;;;;;;;4.00;4.00;;;;;24.19;40.37;101102.59;5095397;27;46990;-67
2023/10/11 11:42:47;;;;;;;;;7.50;4.50;;;;;24.25;39.88;101102.91;5116034;27;45255;-66
2023/10/11 11:45:16;;;;;;;;;6.25;4.75;;;;;24.31;39.18;101096.25;5121039;27;45522;-66
2023/10/11 11:47:57;;;;;;;;;5.25;4.00;;;;;24.36;38.92;101090.53;5100401;27;45571;-66
2023/10/11 11:50:30;;;;;;;;;4.75;3.75;;;;;24.43;39.83;101089.94;5115630;27;45238;-67
2023/10/11 11:52:57;;;;;;;;;4.25;4.25;;;;;24.47;39.63;101066.47;5100035;27;45514;-66
2023/10/11 11:55:22;;;;;;;;;6.50;5.00;;;;;24.59;40.00;101068.16;5116577;27;45543;-67
2023/10/11 11:57:48;;;;;;;;;7.50;5.25;;;;;24.71;39.87;101055.59;5109352;27;64855;-67
2023/10/11 12:02:49;;;;;;;;;9.25;5.25;;;;;24.92;39.35;101049.47;5119720;27;45487;-66
2023/10/11 12:05:14;;;;;;;;;14.75;13.50;;;;;25.02;39.54;101047.75;5104207;27;45491;-67
2023/10/11 12:07:40;;;;;;;;;15.25;10.00;;;;;25.09;39.62;101040.03;5102641;27;45575;-66
2023/10/11 12:10:11;;;;;;;;;5.75;5.75;;;;;25.15;39.44;101042.19;5083876;27;45495;-67
2023/10/11 12:12:36;;;;;;;;;6.75;6.25;;;;;25.16;39.34;101028.69;5110942;27;45707;-67
2023/10/11 12:15:03;;;;;;;;;7.50;7.25;;;;;25.24;40.18;101029.88;5103481;27;45493;-67
2023/10/11 12:17:29;;;;;;;;;7.25;5.00;;;;;25.27;39.23;101022.44;5115299;27;45463;-67
2023/10/11 12:19:54;;;;;;;;;6.75;5.00;;;;;25.27;38.75;101016.22;5099605;27;45356;-67